sensor_id;sensor_type;location;lat;lon;timestamp;pressure;altitude;pressure_sealevel;temperature;humidity
75745;BME280;64359;51.366;-0.222;2022-10-29T00:00:57;101563.21;;;22.63;63.96
75745;BME280;64359;51.366;-0.222;2022-10-29T00:02:02;101564.90;;;22.62;63.83
75745;BME280;64359;51.366;-0.222;2022-10-29T00:03:07;101566.07;;;22.62;63.74
75745;BME280;64359;51.366;-0.222;2022-10-29T00:04:12;101558.19;;;22.58;63.94
75745;BME280;64359;51.366;-0.222;2022-10-29T00:05:17;101557.85;;;22.58;63.77
75745;BME280;64359;51.366;-0.222;2022-10-29T00:06:22;101562.41;;;22.61;63.87
75745;BME280;64359;51.366;-0.222;2022-10-29T00:07:27;101565.29;;;22.58;63.84
75745;BME280;64359;51.366;-0.222;2022-10-29T00:08:34;101559.54;;;22.54;63.96
75745;BME280;64359;51.366;-0.222;2022-10-29T00:09:39;101565.92;;;22.58;64.01
75745;BME280;64359;51.366;-0.222;2022-10-29T00:10:44;101564.30;;;22.59;64.07
75745;BME280;64359;51.366;-0.222;2022-10-29T00:11:49;101554.02;;;22.58;64.17
75745;BME280;64359;51.366;-0.222;2022-10-29T00:12:54;101550.35;;;22.58;64.25
75745;BME280;64359;51.366;-0.222;2022-10-29T00:14:00;101542.91;;;22.59;64.10
75745;BME280;64359;51.366;-0.222;2022-10-29T00:15:07;101525.94;;;22.58;64.15
75745;BME280;64359;51.366;-0.222;2022-10-29T00:16:13;101519.36;;;22.57;64.13
75745;BME280;64359;51.366;-0.222;2022-10-29T00:17:19;101509.78;;;22.54;63.98
75745;BME280;64359;51.366;-0.222;2022-10-29T00:18:25;101518.78;;;22.58;63.85
75745;BME280;64359;51.366;-0.222;2022-10-29T00:19:30;101516.21;;;22.56;63.95
75745;BME280;64359;51.366;-0.222;2022-10-29T00:20:35;101516.14;;;22.57;63.91
75745;BME280;64359;51.366;-0.222;2022-10-29T00:21:40;101507.96;;;22.53;63.85
75745;BME280;64359;51.366;-0.222;2022-10-29T00:22:45;101509.51;;;22.55;63.82
75745;BME280;64359;51.366;-0.222;2022-10-29T00:23:51;101513.31;;;22.55;63.83
75745;BME280;64359;51.366;-0.222;2022-10-29T00:24:56;101506.70;;;22.54;63.85
75745;BME280;64359;51.366;-0.222;2022-10-29T00:26:01;101501.71;;;22.54;63.74
75745;BME280;64359;51.366;-0.222;2022-10-29T00:27:07;101500.53;;;22.53;63.79
75745;BME280;64359;51.366;-0.222;2022-10-29T00:28:12;101495.31;;;22.51;63.86
75745;BME280;64359;51.366;-0.222;2022-10-29T00:29:17;101494.61;;;22.51;63.90
75745;BME280;64359;51.366;-0.222;2022-10-29T00:30:22;101493.35;;;22.51;63.72
75745;BME280;64359;51.366;-0.222;2022-10-29T00:31:27;101488.95;;;22.50;63.78
75745;BME280;64359;51.366;-0.222;2022-10-29T00:32:33;101482.90;;;22.46;63.82
75745;BME280;64359;51.366;-0.222;2022-10-29T00:33:38;101489.03;;;22.48;63.82
75745;BME280;64359;51.366;-0.222;2022-10-29T00:34:43;101486.64;;;22.48;63.78
75745;BME280;64359;51.366;-0.222;2022-10-29T00:35:57;101487.23;;;22.48;63.80
75745;BME280;64359;51.366;-0.222;2022-10-29T00:37:03;101484.30;;;22.46;63.88
75745;BME280;64359;51.366;-0.222;2022-10-29T00:38:08;101485.42;;;22.46;63.79
75745;BME280;64359;51.366;-0.222;2022-10-29T00:39:15;101486.66;;;22.45;63.80
75745;BME280;64359;51.366;-0.222;2022-10-29T00:40:21;101484.55;;;22.40;63.88
75745;BME280;64359;51.366;-0.222;2022-10-29T00:41:28;101493.77;;;22.43;63.80
75745;BME280;64359;51.366;-0.222;2022-10-29T00:42:33;101499.30;;;22.42;63.96
75745;BME280;64359;51.366;-0.222;2022-10-29T00:43:40;101498.02;;;22.42;64.02
75745;BME280;64359;51.366;-0.222;2022-10-29T00:44:46;101498.31;;;22.43;64.11
75745;BME280;64359;51.366;-0.222;2022-10-29T00:45:54;101503.09;;;22.43;64.26
75745;BME280;64359;51.366;-0.222;2022-10-29T00:47:11;101499.46;;;22.44;64.33
75745;BME280;64359;51.366;-0.222;2022-10-29T00:48:18;101501.19;;;22.44;64.40
75745;BME280;64359;51.366;-0.222;2022-10-29T00:49:25;101497.42;;;22.44;64.24
75745;BME280;64359;51.366;-0.222;2022-10-29T00:50:30;101496.31;;;22.44;64.26
75745;BME280;64359;51.366;-0.222;2022-10-29T00:51:35;101492.58;;;22.44;64.14
75745;BME280;64359;51.366;-0.222;2022-10-29T00:52:43;101496.53;;;22.44;64.12
75745;BME280;64359;51.366;-0.222;2022-10-29T00:53:52;101499.73;;;22.43;63.99
75745;BME280;64359;51.366;-0.222;2022-10-29T00:55:02;101498.11;;;22.43;63.99
75745;BME280;64359;51.366;-0.222;2022-10-29T00:56:09;101498.83;;;22.43;64.10
75745;BME280;64359;51.366;-0.222;2022-10-29T00:57:16;101485.08;;;22.38;63.95
75745;BME280;64359;51.366;-0.222;2022-10-29T00:58:21;101489.65;;;22.41;63.93
75745;BME280;64359;51.366;-0.222;2022-10-29T00:59:26;101489.75;;;22.40;64.02
75745;BME280;64359;51.366;-0.222;2022-10-29T01:00:31;101491.11;;;22.39;63.93
75745;BME280;64359;51.366;-0.222;2022-10-29T01:01:36;101483.33;;;22.38;63.96
75745;BME280;64359;51.366;-0.222;2022-10-29T01:02:44;101477.35;;;22.33;64.02
75745;BME280;64359;51.366;-0.222;2022-10-29T01:03:49;101486.38;;;22.38;63.85
75745;BME280;64359;51.366;-0.222;2022-10-29T01:04:55;101479.48;;;22.34;63.83
75745;BME280;64359;51.366;-0.222;2022-10-29T01:06:01;101486.31;;;22.37;63.88
75745;BME280;64359;51.366;-0.222;2022-10-29T01:07:09;101491.10;;;22.36;63.92
75745;BME280;64359;51.366;-0.222;2022-10-29T01:08:15;101485.77;;;22.32;63.94
75745;BME280;64359;51.366;-0.222;2022-10-29T01:09:20;101493.08;;;22.36;63.95
75745;BME280;64359;51.366;-0.222;2022-10-29T01:10:34;101486.48;;;22.34;63.81
75745;BME280;64359;51.366;-0.222;2022-10-29T01:11:50;101487.12;;;22.35;63.90
75745;BME280;64359;51.366;-0.222;2022-10-29T01:13:11;101486.31;;;22.34;63.94
75745;BME280;64359;51.366;-0.222;2022-10-29T01:14:25;101487.17;;;22.33;63.87
75745;BME280;64359;51.366;-0.222;2022-10-29T01:15:39;101483.58;;;22.33;63.96
75745;BME280;64359;51.366;-0.222;2022-10-29T01:16:48;101488.60;;;22.31;63.91
75745;BME280;64359;51.366;-0.222;2022-10-29T01:18:07;101485.63;;;22.30;63.88
75745;BME280;64359;51.366;-0.222;2022-10-29T01:19:24;101476.98;;;22.30;64.06
75745;BME280;64359;51.366;-0.222;2022-10-29T01:21:14;101468.48;;;22.27;64.26
75745;BME280;64359;51.366;-0.222;2022-10-29T01:22:30;101471.75;;;22.30;64.26
75745;BME280;64359;51.366;-0.222;2022-10-29T01:24:05;101476.64;;;22.30;64.24
75745;BME280;64359;51.366;-0.222;2022-10-29T01:25:34;101470.39;;;22.29;64.20
75745;BME280;64359;51.366;-0.222;2022-10-29T01:27:07;101469.22;;;22.28;64.14
75745;BME280;64359;51.366;-0.222;2022-10-29T01:28:28;101467.37;;;22.26;64.20
75745;BME280;64359;51.366;-0.222;2022-10-29T01:29:48;101476.79;;;22.29;64.17
75745;BME280;64359;51.366;-0.222;2022-10-29T01:32:56;101473.29;;;22.29;64.11
75745;BME280;64359;51.366;-0.222;2022-10-29T01:34:09;101471.98;;;22.27;64.13
75745;BME280;64359;51.366;-0.222;2022-10-29T01:35:20;101469.84;;;22.26;64.07
75745;BME280;64359;51.366;-0.222;2022-10-29T01:36:32;101467.04;;;22.26;63.97
75745;BME280;64359;51.366;-0.222;2022-10-29T01:37:44;101462.94;;;22.25;64.01
75745;BME280;64359;51.366;-0.222;2022-10-29T01:38:58;101458.35;;;22.24;64.12
75745;BME280;64359;51.366;-0.222;2022-10-29T01:40:10;101454.02;;;22.24;63.96
75745;BME280;64359;51.366;-0.222;2022-10-29T01:41:22;101450.39;;;22.24;63.99
75745;BME280;64359;51.366;-0.222;2022-10-29T01:42:33;101453.09;;;22.24;63.99
75745;BME280;64359;51.366;-0.222;2022-10-29T01:43:44;101449.45;;;22.23;63.96
75745;BME280;64359;51.366;-0.222;2022-10-29T01:44:55;101448.08;;;22.22;64.12
75745;BME280;64359;51.366;-0.222;2022-10-29T01:46:05;101448.05;;;22.21;64.10
75745;BME280;64359;51.366;-0.222;2022-10-29T01:47:13;101435.02;;;22.16;64.02
75745;BME280;64359;51.366;-0.222;2022-10-29T01:48:21;101440.94;;;22.20;64.00
75745;BME280;64359;51.366;-0.222;2022-10-29T01:49:31;101438.45;;;22.18;64.07
75745;BME280;64359;51.366;-0.222;2022-10-29T01:50:40;101440.06;;;22.18;64.06
75745;BME280;64359;51.366;-0.222;2022-10-29T01:51:46;101438.27;;;22.18;64.18
75745;BME280;64359;51.366;-0.222;2022-10-29T01:52:52;101435.86;;;22.18;64.15
75745;BME280;64359;51.366;-0.222;2022-10-29T01:53:58;101435.74;;;22.19;64.31
75745;BME280;64359;51.366;-0.222;2022-10-29T01:55:06;101432.61;;;22.20;64.36
75745;BME280;64359;51.366;-0.222;2022-10-29T01:56:11;101430.61;;;22.20;64.44
75745;BME280;64359;51.366;-0.222;2022-10-29T01:57:30;101435.02;;;22.21;64.44
75745;BME280;64359;51.366;-0.222;2022-10-29T01:58:36;101435.09;;;22.20;64.30
75745;BME280;64359;51.366;-0.222;2022-10-29T01:59:44;101431.97;;;22.21;64.39
75745;BME280;64359;51.366;-0.222;2022-10-29T02:00:53;101427.49;;;22.20;64.23
75745;BME280;64359;51.366;-0.222;2022-10-29T02:02:07;101430.04;;;22.20;64.27
75745;BME280;64359;51.366;-0.222;2022-10-29T02:03:26;101426.89;;;22.19;64.16
75745;BME280;64359;51.366;-0.222;2022-10-29T02:04:54;101428.38;;;22.20;64.15
75745;BME280;64359;51.366;-0.222;2022-10-29T02:06:09;101423.23;;;22.20;64.08
75745;BME280;64359;51.366;-0.222;2022-10-29T02:07:23;101421.41;;;22.18;64.04
75745;BME280;64359;51.366;-0.222;2022-10-29T02:08:37;101417.80;;;22.17;64.08
75745;BME280;64359;51.366;-0.222;2022-10-29T02:09:52;101418.84;;;22.17;64.15
75745;BME280;64359;51.366;-0.222;2022-10-29T02:11:05;101413.82;;;22.17;64.13
75745;BME280;64359;51.366;-0.222;2022-10-29T02:12:18;101413.67;;;22.15;63.97
75745;BME280;64359;51.366;-0.222;2022-10-29T02:13:29;101411.91;;;22.15;63.97
75745;BME280;64359;51.366;-0.222;2022-10-29T02:14:39;101409.52;;;22.15;64.11
75745;BME280;64359;51.366;-0.222;2022-10-29T02:15:47;101412.28;;;22.14;64.14
75745;BME280;64359;51.366;-0.222;2022-10-29T02:16:53;101410.42;;;22.13;64.05
75745;BME280;64359;51.366;-0.222;2022-10-29T02:18:04;101411.34;;;22.13;64.10
75745;BME280;64359;51.366;-0.222;2022-10-29T02:19:09;101408.23;;;22.12;64.03
75745;BME280;64359;51.366;-0.222;2022-10-29T02:20:14;101399.52;;;22.09;64.11
75745;BME280;64359;51.366;-0.222;2022-10-29T02:21:19;101403.89;;;22.12;64.04
75745;BME280;64359;51.366;-0.222;2022-10-29T02:22:24;101400.30;;;22.12;64.08
75745;BME280;64359;51.366;-0.222;2022-10-29T02:23:28;101397.59;;;22.12;64.00
75745;BME280;64359;51.366;-0.222;2022-10-29T02:24:32;101394.20;;;22.08;63.99
75745;BME280;64359;51.366;-0.222;2022-10-29T02:25:37;101399.05;;;22.10;63.98
75745;BME280;64359;51.366;-0.222;2022-10-29T02:26:41;101390.84;;;22.06;64.02
75745;BME280;64359;51.366;-0.222;2022-10-29T02:27:46;101392.11;;;22.09;64.15
75745;BME280;64359;51.366;-0.222;2022-10-29T02:28:50;101389.05;;;22.09;64.29
75745;BME280;64359;51.366;-0.222;2022-10-29T02:29:55;101383.02;;;22.10;64.42
75745;BME280;64359;51.366;-0.222;2022-10-29T02:30:59;101381.23;;;22.11;64.53
75745;BME280;64359;51.366;-0.222;2022-10-29T02:32:04;101372.39;;;22.11;64.44
75745;BME280;64359;51.366;-0.222;2022-10-29T02:33:08;101362.88;;;22.09;64.30
75745;BME280;64359;51.366;-0.222;2022-10-29T02:34:13;101365.80;;;22.11;64.34
75745;BME280;64359;51.366;-0.222;2022-10-29T02:35:17;101353.62;;;22.09;64.28
75745;BME280;64359;51.366;-0.222;2022-10-29T02:36:22;101350.42;;;22.08;64.18
75745;BME280;64359;51.366;-0.222;2022-10-29T02:37:26;101354.91;;;22.12;64.28
75745;BME280;64359;51.366;-0.222;2022-10-29T02:38:31;101359.02;;;22.12;64.19
75745;BME280;64359;51.366;-0.222;2022-10-29T02:39:35;101358.94;;;22.13;64.19
75745;BME280;64359;51.366;-0.222;2022-10-29T02:40:40;101351.55;;;22.12;64.13
75745;BME280;64359;51.366;-0.222;2022-10-29T02:41:44;101348.33;;;22.12;64.11
75745;BME280;64359;51.366;-0.222;2022-10-29T02:42:49;101346.48;;;22.11;64.08
75745;BME280;64359;51.366;-0.222;2022-10-29T02:43:53;101343.38;;;22.11;64.05
75745;BME280;64359;51.366;-0.222;2022-10-29T02:44:58;101337.52;;;22.10;64.00
75745;BME280;64359;51.366;-0.222;2022-10-29T02:46:14;101329.95;;;22.07;63.95
75745;BME280;64359;51.366;-0.222;2022-10-29T02:47:18;101330.41;;;22.09;64.06
75745;BME280;64359;51.366;-0.222;2022-10-29T02:48:23;101325.40;;;22.09;63.97
75745;BME280;64359;51.366;-0.222;2022-10-29T02:49:28;101320.30;;;22.09;64.04
75745;BME280;64359;51.366;-0.222;2022-10-29T02:50:32;101315.33;;;22.08;64.08
75745;BME280;64359;51.366;-0.222;2022-10-29T02:51:37;101305.80;;;22.08;64.06
75745;BME280;64359;51.366;-0.222;2022-10-29T02:52:41;101305.93;;;22.08;64.05
75745;BME280;64359;51.366;-0.222;2022-10-29T02:53:46;101299.66;;;22.08;64.05
75745;BME280;64359;51.366;-0.222;2022-10-29T02:54:50;101297.63;;;22.08;64.11
75745;BME280;64359;51.366;-0.222;2022-10-29T02:55:55;101296.20;;;22.08;64.05
75745;BME280;64359;51.366;-0.222;2022-10-29T02:56:59;101299.50;;;22.08;64.02
75745;BME280;64359;51.366;-0.222;2022-10-29T02:58:03;101300.23;;;22.07;64.03
75745;BME280;64359;51.366;-0.222;2022-10-29T02:59:08;101302.05;;;22.08;63.99
75745;BME280;64359;51.366;-0.222;2022-10-29T03:00:14;101305.78;;;22.06;64.04
75745;BME280;64359;51.366;-0.222;2022-10-29T03:01:19;101307.48;;;22.05;64.07
75745;BME280;64359;51.366;-0.222;2022-10-29T03:02:23;101306.48;;;22.05;63.93
75745;BME280;64359;51.366;-0.222;2022-10-29T03:03:28;101304.05;;;22.05;64.22
75745;BME280;64359;51.366;-0.222;2022-10-29T03:04:33;101295.77;;;22.02;64.24
75745;BME280;64359;51.366;-0.222;2022-10-29T03:05:39;101301.27;;;22.06;64.38
75745;BME280;64359;51.366;-0.222;2022-10-29T03:06:43;101292.85;;;22.03;64.33
75745;BME280;64359;51.366;-0.222;2022-10-29T03:07:49;101292.01;;;22.07;64.30
75745;BME280;64359;51.366;-0.222;2022-10-29T03:08:53;101281.89;;;22.04;64.27
75745;BME280;64359;51.366;-0.222;2022-10-29T03:09:58;101285.37;;;22.06;64.15
75745;BME280;64359;51.366;-0.222;2022-10-29T03:11:02;101278.30;;;22.03;64.18
75745;BME280;64359;51.366;-0.222;2022-10-29T03:12:08;101279.67;;;22.05;64.17
75745;BME280;64359;51.366;-0.222;2022-10-29T03:13:12;101284.40;;;22.05;64.08
75745;BME280;64359;51.366;-0.222;2022-10-29T03:14:17;101286.43;;;22.04;64.07
75745;BME280;64359;51.366;-0.222;2022-10-29T03:15:21;101280.55;;;22.01;64.11
75745;BME280;64359;51.366;-0.222;2022-10-29T03:16:26;101288.42;;;22.03;63.99
75745;BME280;64359;51.366;-0.222;2022-10-29T03:17:30;101284.40;;;22.03;63.91
75745;BME280;64359;51.366;-0.222;2022-10-29T03:18:35;101285.81;;;22.02;63.95
75745;BME280;64359;51.366;-0.222;2022-10-29T03:19:39;101287.14;;;22.01;63.96
75745;BME280;64359;51.366;-0.222;2022-10-29T03:20:44;101278.36;;;21.98;63.96
75745;BME280;64359;51.366;-0.222;2022-10-29T03:21:49;101280.06;;;22.00;63.99
75745;BME280;64359;51.366;-0.222;2022-10-29T03:22:54;101277.13;;;21.98;63.93
75745;BME280;64359;51.366;-0.222;2022-10-29T03:23:58;101277.10;;;21.96;64.03
75745;BME280;64359;51.366;-0.222;2022-10-29T03:25:03;101283.98;;;21.99;64.04
75745;BME280;64359;51.366;-0.222;2022-10-29T03:26:07;101280.47;;;21.98;64.09
75745;BME280;64359;51.366;-0.222;2022-10-29T03:27:12;101269.42;;;21.97;64.02
75745;BME280;64359;51.366;-0.222;2022-10-29T03:28:17;101260.75;;;21.97;64.07
75745;BME280;64359;51.366;-0.222;2022-10-29T03:29:21;101254.55;;;21.95;64.09
75745;BME280;64359;51.366;-0.222;2022-10-29T03:30:25;101257.71;;;21.95;64.07
75745;BME280;64359;51.366;-0.222;2022-10-29T03:31:30;101264.42;;;21.95;64.13
75745;BME280;64359;51.366;-0.222;2022-10-29T03:32:41;101263.77;;;21.93;64.13
75745;BME280;64359;51.366;-0.222;2022-10-29T03:33:47;101258.79;;;21.92;64.16
75745;BME280;64359;51.366;-0.222;2022-10-29T03:34:51;101254.77;;;21.91;64.14
75745;BME280;64359;51.366;-0.222;2022-10-29T03:36:00;101246.23;;;21.90;64.20
75745;BME280;64359;51.366;-0.222;2022-10-29T03:37:05;101242.33;;;21.91;64.24
75745;BME280;64359;51.366;-0.222;2022-10-29T03:38:10;101235.41;;;21.91;64.50
75745;BME280;64359;51.366;-0.222;2022-10-29T03:39:14;101232.11;;;21.91;64.54
75745;BME280;64359;51.366;-0.222;2022-10-29T03:40:19;101234.48;;;21.91;64.69
75745;BME280;64359;51.366;-0.222;2022-10-29T03:41:24;101235.50;;;21.92;64.58
75745;BME280;64359;51.366;-0.222;2022-10-29T03:42:28;101236.75;;;21.89;64.58
75745;BME280;64359;51.366;-0.222;2022-10-29T03:43:33;101237.60;;;21.92;64.46
75745;BME280;64359;51.366;-0.222;2022-10-29T03:44:38;101231.50;;;21.92;64.45
75745;BME280;64359;51.366;-0.222;2022-10-29T03:45:43;101233.84;;;21.92;64.40
75745;BME280;64359;51.366;-0.222;2022-10-29T03:46:47;101229.54;;;21.92;64.36
75745;BME280;64359;51.366;-0.222;2022-10-29T03:47:51;101236.05;;;21.92;64.38
75745;BME280;64359;51.366;-0.222;2022-10-29T03:48:56;101229.73;;;21.92;64.19
75745;BME280;64359;51.366;-0.222;2022-10-29T03:50:00;101225.27;;;21.91;64.31
75745;BME280;64359;51.366;-0.222;2022-10-29T03:51:06;101223.92;;;21.90;64.33
75745;BME280;64359;51.366;-0.222;2022-10-29T03:52:10;101223.25;;;21.90;64.24
75745;BME280;64359;51.366;-0.222;2022-10-29T03:53:15;101219.79;;;21.90;64.25
75745;BME280;64359;51.366;-0.222;2022-10-29T03:54:19;101221.65;;;21.90;64.23
75745;BME280;64359;51.366;-0.222;2022-10-29T03:55:24;101214.55;;;21.89;64.17
75745;BME280;64359;51.366;-0.222;2022-10-29T03:56:31;101217.56;;;21.89;64.17
75745;BME280;64359;51.366;-0.222;2022-10-29T03:57:35;101213.70;;;21.88;64.25
75745;BME280;64359;51.366;-0.222;2022-10-29T03:58:39;101213.79;;;21.88;64.20
75745;BME280;64359;51.366;-0.222;2022-10-29T03:59:44;101214.02;;;21.87;64.16
75745;BME280;64359;51.366;-0.222;2022-10-29T04:00:55;101213.73;;;21.86;64.28
75745;BME280;64359;51.366;-0.222;2022-10-29T04:02:00;101210.04;;;21.86;64.20
75745;BME280;64359;51.366;-0.222;2022-10-29T04:03:04;101210.23;;;21.83;64.36
75745;BME280;64359;51.366;-0.222;2022-10-29T04:04:09;101214.60;;;21.84;64.21
75745;BME280;64359;51.366;-0.222;2022-10-29T04:05:14;101216.71;;;21.83;64.24
75745;BME280;64359;51.366;-0.222;2022-10-29T04:06:18;101212.23;;;21.79;64.25
75745;BME280;64359;51.366;-0.222;2022-10-29T04:07:23;101220.75;;;21.82;64.23
75745;BME280;64359;51.366;-0.222;2022-10-29T04:08:28;101218.94;;;21.81;64.28
75745;BME280;64359;51.366;-0.222;2022-10-29T04:09:32;101215.00;;;21.80;64.23
75745;BME280;64359;51.366;-0.222;2022-10-29T04:10:37;101214.42;;;21.78;64.26
75745;BME280;64359;51.366;-0.222;2022-10-29T04:11:41;101209.86;;;21.80;64.43
75745;BME280;64359;51.366;-0.222;2022-10-29T04:12:47;101207.98;;;21.80;64.48
75745;BME280;64359;51.366;-0.222;2022-10-29T04:13:53;101204.96;;;21.81;64.70
75745;BME280;64359;51.366;-0.222;2022-10-29T04:14:58;101206.72;;;21.82;64.68
75745;BME280;64359;51.366;-0.222;2022-10-29T04:16:02;101200.82;;;21.83;64.68
75745;BME280;64359;51.366;-0.222;2022-10-29T04:17:06;101192.86;;;21.84;64.68
75745;BME280;64359;51.366;-0.222;2022-10-29T04:18:11;101189.79;;;21.83;64.69
75745;BME280;64359;51.366;-0.222;2022-10-29T04:19:17;101188.52;;;21.86;64.66
75745;BME280;64359;51.366;-0.222;2022-10-29T04:20:21;101190.81;;;21.86;64.53
75745;BME280;64359;51.366;-0.222;2022-10-29T04:21:25;101190.73;;;21.87;64.45
75745;BME280;64359;51.366;-0.222;2022-10-29T04:22:30;101189.44;;;21.87;64.36
75745;BME280;64359;51.366;-0.222;2022-10-29T04:23:35;101189.78;;;21.87;64.38
75745;BME280;64359;51.366;-0.222;2022-10-29T04:24:39;101190.92;;;21.88;64.46
75745;BME280;64359;51.366;-0.222;2022-10-29T04:25:50;101186.64;;;21.89;64.30
75745;BME280;64359;51.366;-0.222;2022-10-29T04:26:57;101184.80;;;21.89;64.37
75745;BME280;64359;51.366;-0.222;2022-10-29T04:28:01;101185.98;;;21.90;64.29
75745;BME280;64359;51.366;-0.222;2022-10-29T04:29:06;101187.07;;;21.90;64.26
75745;BME280;64359;51.366;-0.222;2022-10-29T04:30:12;101185.81;;;21.90;64.30
75745;BME280;64359;51.366;-0.222;2022-10-29T04:31:16;101181.17;;;21.90;64.15
75745;BME280;64359;51.366;-0.222;2022-10-29T04:32:21;101180.00;;;21.89;64.15
75745;BME280;64359;51.366;-0.222;2022-10-29T04:33:25;101176.23;;;21.88;64.18
75745;BME280;64359;51.366;-0.222;2022-10-29T04:34:30;101176.48;;;21.88;64.14
75745;BME280;64359;51.366;-0.222;2022-10-29T04:35:34;101180.55;;;21.87;64.23
75745;BME280;64359;51.366;-0.222;2022-10-29T04:36:39;101178.25;;;21.87;64.16
75745;BME280;64359;51.366;-0.222;2022-10-29T04:37:44;101175.73;;;21.85;64.19
75745;BME280;64359;51.366;-0.222;2022-10-29T04:38:48;101175.42;;;21.85;64.09
75745;BME280;64359;51.366;-0.222;2022-10-29T04:39:53;101173.41;;;21.84;64.16
75745;BME280;64359;51.366;-0.222;2022-10-29T04:40:59;101172.23;;;21.83;64.11
75745;BME280;64359;51.366;-0.222;2022-10-29T04:42:04;101168.00;;;21.82;64.26
75745;BME280;64359;51.366;-0.222;2022-10-29T04:43:08;101161.73;;;21.81;64.20
75745;BME280;64359;51.366;-0.222;2022-10-29T04:44:13;101154.15;;;21.81;64.24
75745;BME280;64359;51.366;-0.222;2022-10-29T04:45:18;101146.38;;;21.81;64.36
75745;BME280;64359;51.366;-0.222;2022-10-29T04:46:23;101143.69;;;21.83;64.52
75745;BME280;64359;51.366;-0.222;2022-10-29T04:47:27;101142.12;;;21.84;64.56
75745;BME280;64359;51.366;-0.222;2022-10-29T04:48:31;101136.62;;;21.84;64.70
75745;BME280;64359;51.366;-0.222;2022-10-29T04:49:38;101134.45;;;21.84;64.71
75745;BME280;64359;51.366;-0.222;2022-10-29T04:50:43;101133.40;;;21.84;64.59
75745;BME280;64359;51.366;-0.222;2022-10-29T04:51:48;101130.52;;;21.84;64.53
75745;BME280;64359;51.366;-0.222;2022-10-29T04:52:52;101130.11;;;21.84;64.40
75745;BME280;64359;51.366;-0.222;2022-10-29T04:54:00;101132.19;;;21.84;64.41
75745;BME280;64359;51.366;-0.222;2022-10-29T04:55:06;101132.02;;;21.83;64.35
75745;BME280;64359;51.366;-0.222;2022-10-29T04:56:11;101135.81;;;21.84;64.30
75745;BME280;64359;51.366;-0.222;2022-10-29T04:57:15;101132.42;;;21.83;64.23
75745;BME280;64359;51.366;-0.222;2022-10-29T04:58:20;101136.35;;;21.83;64.30
75745;BME280;64359;51.366;-0.222;2022-10-29T04:59:25;101134.36;;;21.83;64.31
75745;BME280;64359;51.366;-0.222;2022-10-29T05:00:29;101134.50;;;21.85;64.32
75745;BME280;64359;51.366;-0.222;2022-10-29T05:01:33;101126.61;;;21.85;64.32
75745;BME280;64359;51.366;-0.222;2022-10-29T05:02:38;101123.15;;;21.85;64.24
75745;BME280;64359;51.366;-0.222;2022-10-29T05:05:28;101118.61;;;21.88;64.20
75745;BME280;64359;51.366;-0.222;2022-10-29T05:06:34;101116.66;;;21.86;64.15
75745;BME280;64359;51.366;-0.222;2022-10-29T05:07:39;101114.30;;;21.85;64.32
75745;BME280;64359;51.366;-0.222;2022-10-29T05:08:43;101115.59;;;21.85;64.14
75745;BME280;64359;51.366;-0.222;2022-10-29T05:09:48;101111.23;;;21.83;64.18
75745;BME280;64359;51.366;-0.222;2022-10-29T05:10:52;101111.11;;;21.83;64.14
75745;BME280;64359;51.366;-0.222;2022-10-29T05:11:56;101109.22;;;21.82;64.14
75745;BME280;64359;51.366;-0.222;2022-10-29T05:13:03;101106.66;;;21.81;64.02
75745;BME280;64359;51.366;-0.222;2022-10-29T05:14:09;101096.88;;;21.80;64.14
75745;BME280;64359;51.366;-0.222;2022-10-29T05:15:13;101090.37;;;21.80;64.12
75745;BME280;64359;51.366;-0.222;2022-10-29T05:16:18;101081.80;;;21.79;64.12
75745;BME280;64359;51.366;-0.222;2022-10-29T05:17:22;101074.14;;;21.77;64.16
75745;BME280;64359;51.366;-0.222;2022-10-29T05:18:26;101075.40;;;21.78;64.15
75745;BME280;64359;51.366;-0.222;2022-10-29T05:19:31;101068.63;;;21.74;64.28
75745;BME280;64359;51.366;-0.222;2022-10-29T05:20:36;101065.10;;;21.78;64.40
75745;BME280;64359;51.366;-0.222;2022-10-29T05:21:40;101064.21;;;21.77;64.59
75745;BME280;64359;51.366;-0.222;2022-10-29T05:22:44;101064.31;;;21.78;64.58
75745;BME280;64359;51.366;-0.222;2022-10-29T05:23:49;101067.56;;;21.78;64.55
75745;BME280;64359;51.366;-0.222;2022-10-29T05:24:53;101070.11;;;21.78;64.47
75745;BME280;64359;51.366;-0.222;2022-10-29T05:25:57;101071.95;;;21.78;64.45
75745;BME280;64359;51.366;-0.222;2022-10-29T05:27:02;101066.80;;;21.77;64.33
75745;BME280;64359;51.366;-0.222;2022-10-29T05:28:11;101065.38;;;21.77;64.44
75745;BME280;64359;51.366;-0.222;2022-10-29T05:29:16;101066.96;;;21.77;64.44
75745;BME280;64359;51.366;-0.222;2022-10-29T05:30:20;101070.16;;;21.78;64.26
75745;BME280;64359;51.366;-0.222;2022-10-29T05:31:25;101065.46;;;21.78;64.33
75745;BME280;64359;51.366;-0.222;2022-10-29T05:32:30;101063.27;;;21.78;64.37
75745;BME280;64359;51.366;-0.222;2022-10-29T05:33:34;101065.91;;;21.78;64.30
75745;BME280;64359;51.366;-0.222;2022-10-29T05:34:38;101069.36;;;21.78;64.27
75745;BME280;64359;51.366;-0.222;2022-10-29T05:35:43;101065.16;;;21.77;64.29
75745;BME280;64359;51.366;-0.222;2022-10-29T05:36:47;101068.15;;;21.76;64.29
75745;BME280;64359;51.366;-0.222;2022-10-29T05:37:53;101070.52;;;21.76;64.11
75745;BME280;64359;51.366;-0.222;2022-10-29T05:38:58;101069.13;;;21.75;64.10
75745;BME280;64359;51.366;-0.222;2022-10-29T05:40:02;101069.37;;;21.75;64.21
75745;BME280;64359;51.366;-0.222;2022-10-29T05:41:07;101069.03;;;21.74;64.20
75745;BME280;64359;51.366;-0.222;2022-10-29T05:42:12;101067.79;;;21.74;64.20
75745;BME280;64359;51.366;-0.222;2022-10-29T05:43:17;101068.36;;;21.74;64.21
75745;BME280;64359;51.366;-0.222;2022-10-29T05:44:22;101067.73;;;21.73;64.20
75745;BME280;64359;51.366;-0.222;2022-10-29T05:45:26;101068.76;;;21.73;64.18
75745;BME280;64359;51.366;-0.222;2022-10-29T05:46:31;101069.67;;;21.73;64.16
75745;BME280;64359;51.366;-0.222;2022-10-29T05:47:35;101068.58;;;21.71;64.15
75745;BME280;64359;51.366;-0.222;2022-10-29T05:48:40;101069.57;;;21.70;64.07